| time (UTC) | temp F | wind direction | speed MPH | gust MPH | rain 1hr in | rain 24hr in | rain mn in | humidity % | barometer mb |
| 20260506231307 | 51 | 103 | 1.0 | 1.0 | 0.00 | 0.00 | 0.00 | 99 | 1009.9 |
| 20260506230804 | 51 | 113 | 0.0 | 0.0 | 0.00 | 0.00 | 0.00 | 99 | 1010.1 |
| 20260506230301 | 51 | 79 | 0.0 | 1.0 | 0.00 | 0.00 | 0.00 | 99 | 1009.8 |
| 20260506225757 | 52 | 102 | 1.0 | 2.0 | 0.00 | 0.00 | 0.00 | 99 | 1009.9 |
| 20260506225254 | 52 | 70 | 2.0 | 2.0 | 0.00 | 0.00 | 0.00 | 99 | 1009.7 |
| 20260506224745 | 53 | 100 | 1.0 | 1.0 | 0.00 | 0.00 | 0.00 | 99 | 1009.6 |
| 20260506224243 | 55 | 66 | 1.0 | 2.0 | 0.00 | 0.00 | 0.00 | 99 | 1009.4 |
| 20260506223738 | 57 | 114 | 1.0 | 1.0 | 0.00 | 0.00 | 0.00 | 99 | 1009.4 |
| 20260506223234 | 58 | 134 | 1.0 | 1.0 | 0.00 | 0.00 | 0.00 | 99 | 1009.3 |
| 20260506222731 | 58 | 224 | 3.0 | 3.0 | 0.00 | 0.00 | 0.00 | 99 | 1009.2 |
| 20260506222226 | 58 | 128 | 0.0 | 0.0 | 0.00 | 0.00 | 0.00 | 99 | 1009.2 |
| 20260506221725 | 58 | 314 | 2.0 | 2.0 | 0.00 | 0.00 | 0.00 | 99 | 1009.1 |
| 20260506221223 | 58 | 225 | 2.0 | 2.0 | 0.00 | 0.00 | 0.00 | 99 | 1008.9 |
| 20260506220720 | 58 | 150 | 1.0 | 1.0 | 0.00 | 0.00 | 0.00 | 99 | 1008.7 |
| 20260506220214 | 58 | 140 | 0.0 | 1.0 | 0.00 | 0.00 | 0.00 | 99 | 1008.9 |
| 20260506215711 | 58 | 101 | 0.0 | 1.0 | 0.00 | 0.00 | 0.00 | 99 | 1008.8 |
| 20260506215207 | 58 | 106 | 1.0 | 1.0 | 0.00 | 0.00 | 0.00 | 99 | 1008.8 |
| 20260506214703 | 58 | 137 | 0.0 | 1.0 | 0.00 | 0.00 | 0.00 | 99 | 1008.8 |
| 20260506214201 | 58 | 125 | 0.0 | 1.0 | 0.00 | 0.00 | 0.00 | 99 | 1008.7 |
| 20260506213659 | 57 | 4 | 2.0 | 2.0 | 0.00 | 0.00 | 0.00 | 99 | 1008.9 |
| 20260506213156 | 57 | 128 | 1.0 | 1.0 | 0.00 | 0.00 | 0.00 | 99 | 1008.3 |
| 20260506212653 | 58 | 120 | 0.0 | 0.0 | 0.00 | 0.00 | 0.00 | 99 | 1008.5 |
| 20260506212148 | 57 | 192 | 3.0 | 3.0 | 0.00 | 0.00 | 0.00 | 99 | 1008.2 |
| 20260506211644 | 57 | 137 | 1.0 | 1.0 | 0.00 | 0.00 | 0.00 | 99 | 1008.5 |
| 20260506211141 | 57 | 60 | 1.0 | 2.0 | 0.00 | 0.00 | 0.00 | 99 | 1008.3 |
| 20260506210638 | 57 | 128 | 0.0 | 0.0 | 0.00 | 0.00 | 0.00 | 99 | 1008.6 |
| 20260506210134 | 57 | 60 | 1.0 | 1.0 | 0.00 | 0.00 | 0.00 | 99 | 1008.5 |
| 20260506205631 | 57 | 26 | 1.0 | 2.0 | 0.00 | 0.00 | 0.00 | 99 | 1008.3 |
| 20260506205126 | 57 | 83 | 1.0 | 1.0 | 0.00 | 0.00 | 0.00 | 99 | 1008.5 |
| 20260506204625 | 57 | 317 | 2.0 | 3.0 | 0.00 | 0.00 | 0.00 | 99 | 1008.5 |
| 20260506204121 | 57 | 346 | 2.0 | 2.0 | 0.00 | 0.00 | 0.00 | 99 | 1008.5 |
| 20260506203619 | 57 | 336 | 4.0 | 6.0 | 0.00 | 0.00 | 0.00 | 99 | 1008.2 |
| 20260506203116 | 57 | 158 | 1.0 | 1.0 | 0.00 | 0.00 | 0.00 | 99 | 1008.1 |
| 20260506202614 | 57 | 117 | 0.0 | 1.0 | 0.00 | 0.00 | 0.00 | 99 | 1008.1 |
| 20260506202110 | 57 | 97 | 1.0 | 1.0 | 0.00 | 0.00 | 0.00 | 99 | 1008.3 |
| 20260506201607 | 57 | 131 | 0.0 | 1.0 | 0.00 | 0.00 | 0.00 | 99 | 1008.2 |
| 20260506201103 | 57 | 152 | 1.0 | 1.0 | 0.00 | 0.00 | 0.00 | 99 | 1008.5 |
| 20260506200600 | 57 | 99 | 1.0 | 1.0 | 0.00 | 0.00 | 0.00 | 99 | 1008.2 |
| 20260506200057 | 57 | 312 | 1.0 | 1.0 | 0.00 | 0.00 | 0.00 | 99 | 1008.7 |
| 20260506195553 | 57 | 53 | 1.0 | 1.0 | 0.00 | 0.00 | 0.00 | 99 | 1008.6 |
| 20260506195049 | 57 | 317 | 2.0 | 2.0 | 0.00 | 0.00 | 0.00 | 99 | 1008.5 |
| 20260506194548 | 57 | 136 | 0.0 | 1.0 | 0.00 | 0.00 | 0.00 | 99 | 1008.3 |
| 20260506194043 | 57 | 163 | 1.0 | 2.0 | 0.00 | 0.00 | 0.00 | 99 | 1008.3 |
| 20260506193541 | 57 | 157 | 1.0 | 1.0 | 0.00 | 0.00 | 0.00 | 99 | 1008.5 |
| 20260506193038 | 57 | 226 | 3.0 | 3.0 | 0.00 | 0.00 | 0.00 | 99 | 1008.6 |
| 20260506192535 | 57 | 139 | 1.0 | 2.0 | 0.00 | 0.00 | 0.00 | 99 | 1008.8 |
| 20260506192031 | 57 | 137 | 0.0 | 0.0 | 0.00 | 0.00 | 0.00 | 99 | 1008.8 |
| 20260506191528 | 57 | 13 | 2.0 | 3.0 | 0.00 | 0.00 | 0.00 | 99 | 1008.6 |
| 20260506191024 | 57 | 228 | 1.0 | 2.0 | 0.00 | 0.00 | 0.00 | 99 | 1008.8 |
| 20260506190521 | 57 | 192 | 1.0 | 2.0 | 0.00 | 0.00 | 0.00 | 99 | 1009.0 |
| 20260506190019 | 57 | 150 | 1.0 | 1.0 | 0.00 | 0.00 | 0.00 | 99 | 1008.9 |
| 20260506185515 | 57 | 171 | 1.0 | 2.0 | 0.00 | 0.00 | 0.00 | 99 | 1008.9 |
| 20260506185012 | 57 | 135 | 0.0 | 1.0 | 0.00 | 0.00 | 0.00 | 99 | 1009.1 |
| 20260506184509 | 57 | 150 | 2.0 | 2.0 | 0.00 | 0.00 | 0.00 | 99 | 1009.1 |
| 20260506184006 | 57 | 163 | 1.0 | 1.0 | 0.00 | 0.00 | 0.00 | 99 | 1009.2 |
| 20260506183502 | 57 | 175 | 1.0 | 2.0 | 0.00 | 0.00 | 0.00 | 99 | 1009.1 |
| 20260506182959 | 57 | 217 | 1.0 | 1.0 | 0.00 | 0.00 | 0.00 | 99 | 1009.1 |
| 20260506182456 | 57 | 162 | 0.0 | 1.0 | 0.00 | 0.00 | 0.00 | 99 | 1009.0 |
| 20260506181953 | 56 | 114 | 1.0 | 1.0 | 0.00 | 0.00 | 0.00 | 99 | 1009.4 |
| 20260506181451 | 57 | 154 | 1.0 | 2.0 | 0.00 | 0.00 | 0.00 | 99 | 1009.5 |
| 20260506180948 | 57 | 150 | 1.0 | 1.0 | 0.00 | 0.00 | 0.00 | 99 | 1009.3 |
| 20260506180444 | 56 | 141 | 1.0 | 1.0 | 0.00 | 0.00 | 0.00 | 99 | 1009.4 |
| 20260506175941 | 56 | 172 | 2.0 | 2.0 | 0.00 | 0.00 | 0.00 | 99 | 1009.4 |
| 20260506175438 | 56 | 156 | 1.0 | 1.0 | 0.00 | 0.00 | 0.00 | 99 | 1009.2 |
| 20260506174934 | 56 | 174 | 2.0 | 2.0 | 0.00 | 0.00 | 0.00 | 99 | 1009.3 |
| 20260506174433 | 56 | 137 | 1.0 | 1.0 | 0.00 | 0.00 | 0.00 | 99 | 1009.4 |
| 20260506173929 | 56 | 135 | 0.0 | 0.0 | 0.00 | 0.00 | 0.00 | 99 | 1009.5 |
| 20260506173426 | 56 | 163 | 1.0 | 2.0 | 0.00 | 0.00 | 0.00 | 99 | 1009.5 |
| 20260506172923 | 56 | 174 | 2.0 | 5.0 | 0.00 | 0.00 | 0.00 | 99 | 1009.5 |
| 20260506172420 | 56 | 200 | 3.0 | 3.0 | 0.00 | 0.00 | 0.00 | 99 | 1009.4 |
| 20260506171917 | 56 | 193 | 3.0 | 3.0 | 0.00 | 0.00 | 0.00 | 99 | 1009.5 |
| 20260506171414 | 56 | 59 | 3.0 | 5.0 | 0.00 | 0.00 | 0.00 | 99 | 1009.4 |
| 20260506170912 | 56 | 145 | 1.0 | 1.0 | 0.00 | 0.00 | 0.00 | 99 | 1009.5 |
| 20260506170407 | 56 | 177 | 2.0 | 2.0 | 0.00 | 0.00 | 0.00 | 99 | 1009.5 |
| 20260506165901 | 56 | 159 | 1.0 | 2.0 | 0.00 | 0.00 | 0.00 | 99 | 1009.5 |
| 20260506165359 | 56 | 125 | 2.0 | 3.0 | 0.00 | 0.00 | 0.00 | 99 | 1009.4 |
| 20260506164855 | 56 | 154 | 3.0 | 3.0 | 0.00 | 0.00 | 0.00 | 99 | 1009.6 |
| 20260506164351 | 56 | 141 | 1.0 | 2.0 | 0.00 | 0.00 | 0.00 | 99 | 1009.5 |
| 20260506163850 | 56 | 229 | 2.0 | 2.0 | 0.00 | 0.00 | 0.00 | 99 | 1009.5 |
| 20260506163343 | 56 | 122 | 1.0 | 2.0 | 0.00 | 0.00 | 0.00 | 99 | 1009.7 |
| 20260506162839 | 56 | 184 | 2.0 | 2.0 | 0.00 | 0.00 | 0.00 | 99 | 1009.5 |
| 20260506162337 | 56 | 168 | 2.0 | 2.0 | 0.00 | 0.00 | 0.00 | 99 | 1009.7 |
| 20260506161835 | 56 | 138 | 1.0 | 2.0 | 0.00 | 0.00 | 0.00 | 99 | 1009.5 |
| 20260506161332 | 56 | 163 | 2.0 | 2.0 | 0.00 | 0.00 | 0.00 | 99 | 1009.5 |
| 20260506160829 | 56 | 167 | 4.0 | 6.0 | 0.00 | 0.00 | 0.00 | 99 | 1009.5 |
| 20260506160325 | 56 | 138 | 5.0 | 6.0 | 0.00 | 0.00 | 0.00 | 99 | 1009.5 |
| 20260506155824 | 56 | 160 | 4.0 | 5.0 | 0.00 | 0.00 | 0.00 | 99 | 1009.7 |
| 20260506155320 | 56 | 169 | 4.0 | 5.0 | 0.00 | 0.00 | 0.00 | 99 | 1009.8 |
| 20260506153433 | 56 | 175 | 3.0 | 3.0 | 0.00 | 0.00 | 0.00 | 99 | 1010.4 |
| 20260506152931 | 56 | 150 | 2.0 | 2.0 | 0.00 | 0.00 | 0.00 | 99 | 1010.7 |
| 20260506152427 | 56 | 181 | 3.0 | 5.0 | 0.00 | 0.00 | 0.00 | 99 | 1010.4 |
| 20260506151926 | 56 | 175 | 1.0 | 2.0 | 0.00 | 0.00 | 0.00 | 99 | 1010.1 |
| 20260506151422 | 56 | 148 | 2.0 | 2.0 | 0.00 | 0.00 | 0.00 | 99 | 1010.1 |
| 20260506150920 | 56 | 157 | 2.0 | 2.0 | 0.00 | 0.00 | 0.00 | 99 | 1010.0 |
| 20260506150416 | 56 | 150 | 2.0 | 2.0 | 0.00 | 0.00 | 0.00 | 99 | 1009.9 |
| 20260506145913 | 56 | 170 | 3.0 | 3.0 | 0.00 | 0.00 | 0.00 | 99 | 1010.0 |
| 20260506145409 | 56 | 168 | 2.0 | 2.0 | 0.00 | 0.00 | 0.00 | 99 | 1009.9 |
| 20260506144907 | 56 | 193 | 2.0 | 2.0 | 0.00 | 0.00 | 0.00 | 99 | 1009.9 |
| 20260506144403 | 56 | 161 | 1.0 | 2.0 | 0.00 | 0.00 | 0.00 | 99 | 1010.4 |
| 20260506143902 | 56 | 139 | 0.0 | 1.0 | 0.00 | 0.00 | 0.00 | 99 | 1010.2 |
| 20260506143358 | 56 | 164 | 0.0 | 0.0 | 0.00 | 0.00 | 0.00 | 99 | 1010.1 |
| 20260506142857 | 56 | 167 | 1.0 | 2.0 | 0.00 | 0.00 | 0.00 | 99 | 1010.2 |
| 20260506142354 | 56 | 169 | 0.0 | 0.0 | 0.00 | 0.00 | 0.00 | 99 | 1010.5 |
| 20260506141852 | 56 | 178 | 0.0 | 0.0 | 0.00 | 0.00 | 0.00 | 99 | 1010.5 |
| 20260506141350 | 56 | 162 | 0.0 | 1.0 | 0.00 | 0.00 | 0.00 | 99 | 1010.6 |
| 20260506140848 | 56 | 174 | 2.0 | 2.0 | 0.00 | 0.00 | 0.00 | 99 | 1010.6 |
| 20260506140345 | 56 | 344 | 3.0 | 5.0 | 0.00 | 0.00 | 0.00 | 99 | 1010.7 |
| 20260506135842 | 56 | 174 | 3.0 | 3.0 | 0.00 | 0.00 | 0.00 | 99 | 1010.7 |
| 20260506135338 | 56 | 175 | 2.0 | 2.0 | 0.00 | 0.00 | 0.00 | 99 | 1010.7 |
| 20260506134834 | 56 | 222 | 2.0 | 3.0 | 0.00 | 0.00 | 0.00 | 99 | 1010.8 |
| 20260506134331 | 56 | 145 | 1.0 | 1.0 | 0.00 | 0.00 | 0.00 | 99 | 1010.7 |
| 20260506133828 | 57 | 139 | 1.0 | 1.0 | 0.00 | 0.00 | 0.00 | 99 | 1010.7 |
| 20260506133325 | 57 | 139 | 1.0 | 1.0 | 0.00 | 0.00 | 0.00 | 99 | 1011.0 |
| 20260506132822 | 57 | 155 | 2.0 | 3.0 | 0.00 | 0.00 | 0.00 | 98 | 1011.0 |
| 20260506132319 | 57 | 176 | 1.0 | 2.0 | 0.00 | 0.00 | 0.00 | 98 | 1011.1 |
| 20260506131817 | 57 | 146 | 1.0 | 1.0 | 0.00 | 0.00 | 0.00 | 98 | 1010.9 |
| 20260506131313 | 57 | 186 | 2.0 | 2.0 | 0.00 | 0.00 | 0.00 | 97 | 1010.9 |
| 20260506130810 | 57 | 138 | 1.0 | 1.0 | 0.00 | 0.00 | 0.00 | 97 | 1011.1 |
| 20260506130306 | 57 | 134 | 1.0 | 2.0 | 0.00 | 0.00 | 0.00 | 96 | 1011.1 |
| 20260506125805 | 58 | 161 | 2.0 | 2.0 | 0.00 | 0.00 | 0.00 | 95 | 1010.8 |
| 20260506125305 | 58 | 182 | 2.0 | 2.0 | 0.00 | 0.00 | 0.00 | 95 | 1010.9 |
| 20260506124801 | 58 | 156 | 1.0 | 1.0 | 0.00 | 0.00 | 0.00 | 95 | 1010.8 |
| 20260506124257 | 58 | 172 | 3.0 | 3.0 | 0.00 | 0.00 | 0.00 | 94 | 1010.9 |
| 20260506123755 | 58 | 157 | 1.0 | 2.0 | 0.00 | 0.00 | 0.00 | 95 | 1010.9 |
| 20260506123254 | 58 | 197 | 2.0 | 3.0 | 0.00 | 0.00 | 0.00 | 95 | 1010.8 |
| 20260506122750 | 57 | 175 | 1.0 | 2.0 | 0.00 | 0.00 | 0.00 | 95 | 1010.6 |
| 20260506122247 | 58 | 70 | 2.0 | 2.0 | 0.00 | 0.00 | 0.00 | 95 | 1010.7 |
| 20260506121745 | 58 | 161 | 1.0 | 1.0 | 0.00 | 0.00 | 0.00 | 94 | 1010.6 |
| 20260506121242 | 58 | 136 | 1.0 | 1.0 | 0.00 | 0.00 | 0.00 | 93 | 1010.6 |
| 20260506120739 | 58 | 144 | 1.0 | 1.0 | 0.00 | 0.00 | 0.00 | 93 | 1010.6 |
| 20260506120237 | 58 | 143 | 1.0 | 1.0 | 0.00 | 0.00 | 0.00 | 92 | 1010.8 |
| 20260506115734 | 58 | 141 | 2.0 | 2.0 | 0.00 | 0.00 | 0.00 | 92 | 1010.7 |
| 20260506115232 | 58 | 123 | 1.0 | 2.0 | 0.00 | 0.00 | 0.00 | 90 | 1010.8 |
| 20260506114730 | 58 | 151 | 1.0 | 1.0 | 0.00 | 0.00 | 0.00 | 90 | 1010.8 |
| 20260506114227 | 58 | 165 | 2.0 | 2.0 | 0.00 | 0.00 | 0.00 | 89 | 1010.8 |
| 20260506113726 | 58 | 146 | 2.0 | 3.0 | 0.00 | 0.00 | 0.00 | 88 | 1010.8 |
| 20260506113223 | 59 | 161 | 1.0 | 1.0 | 0.00 | 0.00 | 0.00 | 87 | 1010.9 |
| 20260506112719 | 59 | 150 | 1.0 | 1.0 | 0.00 | 0.00 | 0.00 | 84 | 1010.9 |
| 20260506112217 | 59 | 155 | 2.0 | 2.0 | 0.00 | 0.00 | 0.00 | 84 | 1010.8 |
| 20260506111714 | 59 | 181 | 2.0 | 2.0 | 0.00 | 0.00 | 0.00 | 83 | 1010.9 |
| 20260506111212 | 59 | 139 | 1.0 | 1.0 | 0.00 | 0.00 | 0.00 | 83 | 1010.7 |
| 20260506110708 | 59 | 159 | 2.0 | 3.0 | 0.00 | 0.00 | 0.00 | 83 | 1010.8 |
| 20260506110206 | 59 | 166 | 2.0 | 2.0 | 0.00 | 0.00 | 0.00 | 82 | 1010.8 |
| 20260506105703 | 59 | 152 | 2.0 | 2.0 | 0.00 | 0.00 | 0.00 | 82 | 1010.5 |
| 20260506105159 | 59 | 154 | 1.0 | 2.0 | 0.00 | 0.00 | 0.00 | 82 | 1010.5 |
| 20260506104658 | 59 | 151 | 1.0 | 1.0 | 0.00 | 0.00 | 0.00 | 82 | 1010.4 |
| 20260506104155 | 59 | 145 | 1.0 | 1.0 | 0.00 | 0.00 | 0.00 | 81 | 1010.4 |
| 20260506103652 | 59 | 179 | 2.0 | 3.0 | 0.00 | 0.00 | 0.00 | 81 | 1010.6 |
| 20260506103149 | 59 | 182 | 3.0 | 3.0 | 0.00 | 0.00 | 0.00 | 81 | 1010.2 |
| 20260506102647 | 59 | 155 | 2.0 | 2.0 | 0.00 | 0.00 | 0.00 | 81 | 1009.9 |
| 20260506102144 | 59 | 176 | 2.0 | 2.0 | 0.00 | 0.00 | 0.00 | 80 | 1009.9 |
| 20260506101641 | 59 | 142 | 1.0 | 1.0 | 0.00 | 0.00 | 0.00 | 80 | 1010.4 |
| 20260506101138 | 59 | 130 | 2.0 | 2.0 | 0.00 | 0.00 | 0.00 | 80 | 1010.2 |
| 20260506100636 | 59 | 150 | 2.0 | 2.0 | 0.00 | 0.00 | 0.00 | 79 | 1010.2 |
| 20260506100134 | 59 | 157 | 2.0 | 2.0 | 0.00 | 0.00 | 0.00 | 78 | 1010.4 |
| 20260506095632 | 60 | 168 | 2.0 | 2.0 | 0.00 | 0.00 | 0.00 | 78 | 1010.5 |
| 20260506095129 | 60 | 157 | 1.0 | 2.0 | 0.00 | 0.00 | 0.00 | 77 | 1010.5 |
| 20260506094626 | 60 | 170 | 1.0 | 2.0 | 0.00 | 0.00 | 0.00 | 77 | 1010.5 |
| 20260506094124 | 59 | 186 | 1.0 | 2.0 | 0.00 | 0.00 | 0.00 | 76 | 1010.5 |
| 20260506093622 | 60 | 148 | 1.0 | 1.0 | 0.00 | 0.00 | 0.00 | 76 | 1010.0 |
| 20260506093119 | 60 | 166 | 2.0 | 2.0 | 0.00 | 0.00 | 0.00 | 75 | 1010.2 |
| 20260506092617 | 60 | 142 | 1.0 | 1.0 | 0.00 | 0.00 | 0.00 | 75 | 1010.5 |
| 20260506092113 | 60 | 163 | 2.0 | 2.0 | 0.00 | 0.00 | 0.00 | 74 | 1010.2 |
| 20260506091612 | 60 | 202 | 2.0 | 2.0 | 0.00 | 0.00 | 0.00 | 74 | 1010.5 |
| 20260506091109 | 60 | 150 | 1.0 | 2.0 | 0.00 | 0.00 | 0.00 | 74 | 1010.2 |
| 20260506090607 | 60 | 172 | 1.0 | 2.0 | 0.00 | 0.00 | 0.00 | 73 | 1010.4 |
| 20260506085559 | 60 | 169 | 2.0 | 2.0 | 0.00 | 0.00 | 0.00 | 73 | 1010.6 |
| 20260506085056 | 60 | 140 | 1.0 | 1.0 | 0.00 | 0.00 | 0.00 | 72 | 1010.6 |
| 20260506084553 | 60 | 136 | 0.0 | 1.0 | 0.00 | 0.00 | 0.00 | 72 | 1010.8 |
| 20260506084049 | 60 | 131 | 1.0 | 1.0 | 0.00 | 0.00 | 0.00 | 71 | 1010.7 |
| 20260506083547 | 60 | 153 | 1.0 | 2.0 | 0.00 | 0.00 | 0.00 | 71 | 1010.7 |
| 20260506083044 | 60 | 163 | 1.0 | 2.0 | 0.00 | 0.00 | 0.00 | 71 | 1010.7 |
| 20260506082540 | 60 | 133 | 1.0 | 1.0 | 0.00 | 0.00 | 0.00 | 71 | 1010.7 |
| 20260506082036 | 61 | 189 | 1.0 | 2.0 | 0.00 | 0.00 | 0.00 | 70 | 1010.6 |
| 20260506081535 | 61 | 145 | 1.0 | 1.0 | 0.00 | 0.00 | 0.00 | 70 | 1010.6 |
| 20260506081032 | 61 | 170 | 1.0 | 1.0 | 0.00 | 0.00 | 0.00 | 69 | 1010.8 |
| 20260506080529 | 61 | 142 | 1.0 | 1.0 | 0.00 | 0.00 | 0.00 | 69 | 1010.9 |
| 20260506073513 | 61 | 155 | 1.0 | 1.0 | 0.00 | 0.00 | 0.00 | 67 | 1010.8 |
| 20260506073010 | 61 | 98 | 2.0 | 2.0 | 0.00 | 0.00 | 0.00 | 67 | 1011.0 |
| 20260506072507 | 61 | 154 | 2.0 | 2.0 | 0.00 | 0.00 | 0.00 | 67 | 1010.9 |
| 20260506072004 | 62 | 154 | 1.0 | 2.0 | 0.00 | 0.00 | 0.00 | 66 | 1010.9 |
| 20260506071502 | 62 | 156 | 1.0 | 2.0 | 0.00 | 0.00 | 0.00 | 66 | 1010.8 |
| 20260506070959 | 61 | 167 | 3.0 | 3.0 | 0.00 | 0.00 | 0.00 | 66 | 1010.9 |
| 20260506070456 | 61 | 185 | 2.0 | 2.0 | 0.00 | 0.00 | 0.00 | 66 | 1011.0 |
| 20260506062434 | 61 | 138 | 1.0 | 1.0 | 0.00 | 0.00 | 0.00 | 66 | 1011.2 |
| 20260506061929 | 61 | 152 | 1.0 | 1.0 | 0.00 | 0.00 | 0.00 | 66 | 1011.4 |
| 20260506061426 | 62 | 148 | 1.0 | 1.0 | 0.00 | 0.00 | 0.00 | 65 | 1011.5 |
| 20260506060924 | 62 | 152 | 1.0 | 1.0 | 0.00 | 0.00 | 0.00 | 65 | 1011.4 |
| 20260506060422 | 62 | 204 | 2.0 | 3.0 | 0.00 | 0.00 | 0.00 | 65 | 1011.5 |
| 20260506051354 | 62 | 189 | 2.0 | 2.0 | 0.00 | 0.00 | 0.00 | 64 | 1011.7 |
| 20260506050851 | 62 | 140 | 1.0 | 1.0 | 0.00 | 0.00 | 0.00 | 64 | 1011.9 |
| 20260506050349 | 62 | 185 | 2.0 | 2.0 | 0.00 | 0.00 | 0.00 | 64 | 1011.8 |
| 20260506044839 | 63 | 171 | 2.0 | 2.0 | 0.00 | 0.00 | 0.00 | 62 | 1012.0 |
| 20260506044337 | 63 | 143 | 1.0 | 1.0 | 0.00 | 0.00 | 0.00 | 62 | 1011.9 |
| 20260506043834 | 63 | 233 | 3.0 | 3.0 | 0.00 | 0.00 | 0.00 | 61 | 1012.0 |
| 20260506043331 | 63 | 139 | 1.0 | 1.0 | 0.00 | 0.00 | 0.00 | 62 | 1012.0 |
| 20260506042829 | 63 | 155 | 2.0 | 3.0 | 0.00 | 0.00 | 0.00 | 61 | 1011.7 |
| 20260506042328 | 63 | 172 | 2.0 | 2.0 | 0.00 | 0.00 | 0.00 | 61 | 1012.1 |
| 20260506041827 | 63 | 151 | 2.0 | 2.0 | 0.00 | 0.00 | 0.00 | 61 | 1012.0 |
| 20260506041323 | 63 | 149 | 1.0 | 1.0 | 0.00 | 0.00 | 0.00 | 61 | 1012.3 |
| 20260506040820 | 63 | 140 | 1.0 | 2.0 | 0.00 | 0.00 | 0.00 | 60 | 1012.0 |
| 20260506040318 | 63 | 159 | 1.0 | 2.0 | 0.00 | 0.00 | 0.00 | 59 | 1012.0 |
| 20260506035814 | 64 | 155 | 1.0 | 1.0 | 0.00 | 0.00 | 0.00 | 59 | 1012.0 |
| 20260506035311 | 64 | 156 | 2.0 | 3.0 | 0.00 | 0.00 | 0.00 | 59 | 1012.3 |
| 20260506034808 | 64 | 163 | 2.0 | 2.0 | 0.00 | 0.00 | 0.00 | 59 | 1012.0 |
| 20260506034305 | 64 | 141 | 1.0 | 2.0 | 0.00 | 0.00 | 0.00 | 59 | 1012.1 |
| 20260506033802 | 64 | 178 | 3.0 | 3.0 | 0.00 | 0.00 | 0.00 | 59 | 1012.0 |
| 20260506033259 | 64 | 161 | 2.0 | 2.0 | 0.00 | 0.00 | 0.00 | 58 | 1012.0 |
| 20260506032756 | 64 | 160 | 1.0 | 1.0 | 0.00 | 0.00 | 0.00 | 58 | 1012.1 |
| 20260506032253 | 65 | 155 | 1.0 | 2.0 | 0.00 | 0.00 | 0.00 | 57 | 1012.0 |
| 20260506031749 | 65 | 160 | 3.0 | 3.0 | 0.00 | 0.00 | 0.00 | 57 | 1012.0 |
| 20260506031247 | 65 | 186 | 3.0 | 3.0 | 0.00 | 0.00 | 0.00 | 57 | 1011.8 |
| 20260506030745 | 65 | 109 | 2.0 | 2.0 | 0.00 | 0.00 | 0.00 | 56 | 1012.0 |
| 20260506030243 | 65 | 164 | 1.0 | 1.0 | 0.00 | 0.00 | 0.00 | 56 | 1012.0 |
| 20260506025739 | 65 | 156 | 1.0 | 2.0 | 0.00 | 0.00 | 0.00 | 56 | 1012.1 |
| 20260506025235 | 66 | 172 | 2.0 | 2.0 | 0.00 | 0.00 | 0.00 | 55 | 1012.0 |
| 20260506024733 | 66 | 166 | 2.0 | 2.0 | 0.00 | 0.00 | 0.00 | 55 | 1012.0 |
| 20260506024229 | 66 | 193 | 2.0 | 2.0 | 0.00 | 0.00 | 0.00 | 55 | 1012.0 |
| 20260506023725 | 66 | 174 | 3.0 | 3.0 | 0.00 | 0.00 | 0.00 | 55 | 1012.0 |
| 20260506023223 | 66 | 78 | 3.0 | 5.0 | 0.00 | 0.00 | 0.00 | 54 | 1012.1 |
| 20260506022719 | 66 | 168 | 4.0 | 5.0 | 0.00 | 0.00 | 0.00 | 54 | 1012.3 |
| 20260506022217 | 66 | 181 | 3.0 | 3.0 | 0.00 | 0.00 | 0.00 | 54 | 1012.1 |
| 20260506021715 | 67 | 174 | 1.0 | 2.0 | 0.00 | 0.00 | 0.00 | 54 | 1012.1 |
| 20260506021212 | 67 | 138 | 2.0 | 2.0 | 0.00 | 0.00 | 0.00 | 54 | 1012.1 |
| 20260506020708 | 67 | 176 | 3.0 | 3.0 | 0.00 | 0.00 | 0.00 | 53 | 1012.1 |
| 20260506020206 | 67 | 134 | 2.0 | 3.0 | 0.00 | 0.00 | 0.00 | 53 | 1011.9 |
| 20260506015704 | 67 | 142 | 2.0 | 2.0 | 0.00 | 0.00 | 0.00 | 54 | 1011.9 |
| 20260506015201 | 67 | 185 | 2.0 | 2.0 | 0.00 | 0.00 | 0.00 | 53 | 1012.1 |
| 20260506014658 | 68 | 159 | 2.0 | 2.0 | 0.00 | 0.00 | 0.00 | 53 | 1012.0 |
| 20260506014154 | 68 | 160 | 3.0 | 3.0 | 0.00 | 0.00 | 0.00 | 53 | 1012.1 |
| 20260506013652 | 68 | 198 | 3.0 | 3.0 | 0.00 | 0.00 | 0.00 | 52 | 1011.8 |
| 20260506013149 | 68 | 193 | 4.0 | 5.0 | 0.00 | 0.00 | 0.00 | 51 | 1011.7 |
| 20260506012645 | 68 | 185 | 3.0 | 3.0 | 0.00 | 0.00 | 0.00 | 52 | 1011.8 |
| 20260506012142 | 68 | 165 | 2.0 | 2.0 | 0.00 | 0.00 | 0.00 | 51 | 1011.6 |
| 20260506011639 | 68 | 162 | 2.0 | 2.0 | 0.00 | 0.00 | 0.00 | 51 | 1011.4 |
| 20260506011135 | 68 | 166 | 1.0 | 2.0 | 0.00 | 0.00 | 0.00 | 52 | 1011.6 |
| 20260506010634 | 68 | 133 | 3.0 | 3.0 | 0.00 | 0.00 | 0.00 | 51 | 1011.6 |
| 20260506010131 | 68 | 148 | 1.0 | 1.0 | 0.00 | 0.00 | 0.00 | 51 | 1011.4 |
| 20260506005628 | 68 | 135 | 2.0 | 2.0 | 0.00 | 0.00 | 0.00 | 51 | 1011.1 |
| 20260506005124 | 68 | 177 | 1.0 | 2.0 | 0.00 | 0.00 | 0.00 | 50 | 1011.5 |
| 20260506004621 | 69 | 160 | 2.0 | 2.0 | 0.00 | 0.00 | 0.00 | 50 | 1011.4 |
| 20260506004118 | 69 | 163 | 2.0 | 3.0 | 0.00 | 0.00 | 0.00 | 49 | 1011.4 |
| 20260506003614 | 69 | 168 | 2.0 | 2.0 | 0.00 | 0.00 | 0.00 | 48 | 1011.3 |
| 20260506003110 | 69 | 165 | 2.0 | 2.0 | 0.00 | 0.00 | 0.00 | 48 | 1011.2 |
| 20260506002606 | 69 | 178 | 3.0 | 5.0 | 0.00 | 0.00 | 0.00 | 48 | 1011.2 |
| 20260506002103 | 70 | 198 | 3.0 | 5.0 | 0.00 | 0.00 | 0.00 | 48 | 1011.4 |
| 20260506001559 | 70 | 165 | 1.0 | 2.0 | 0.00 | 0.00 | 0.00 | 47 | 1011.2 |
| 20260506001056 | 70 | 149 | 2.0 | 2.0 | 0.00 | 0.00 | 0.00 | 47 | 1011.2 |
| 20260506000554 | 70 | 165 | 2.0 | 2.0 | 0.00 | 0.00 | 0.00 | 47 | 1011.3 |
| 20260506000051 | 70 | 139 | 2.0 | 2.0 | 0.00 | 0.00 | 0.00 | 47 | 1011.0 |
| 20260505235549 | 70 | 180 | 3.0 | 3.0 | 0.00 | 0.00 | 0.00 | 47 | 1011.2 |
| 20260505235045 | 71 | 167 | 2.0 | 2.0 | 0.00 | 0.00 | 0.00 | 47 | 1011.1 |
| 20260505234542 | 70 | 144 | 1.0 | 1.0 | 0.00 | 0.00 | 0.00 | 48 | 1011.1 |
| 20260505234039 | 71 | 138 | 2.0 | 2.0 | 0.00 | 0.00 | 0.00 | 48 | 1011.1 |
| 20260505233537 | 71 | 145 | 2.0 | 2.0 | 0.00 | 0.00 | 0.00 | 47 | 1011.0 |
| 20260505233034 | 70 | 158 | 2.0 | 2.0 | 0.00 | 0.00 | 0.00 | 48 | 1011.0 |
| 20260505232532 | 70 | 156 | 2.0 | 2.0 | 0.00 | 0.00 | 0.00 | 48 | 1010.9 |
| 20260505232029 | 71 | 144 | 1.0 | 1.0 | 0.00 | 0.00 | 0.00 | 47 | 1011.0 |
| 20260505231526 | 71 | 168 | 1.0 | 2.0 | 0.00 | 0.00 | 0.00 | 47 | 1011.0 |